sensor_id;sensor_type;location;lat;lon;timestamp;pressure;altitude;pressure_sealevel;temperature
27715;BMP280;16051;53.024;8.630;2022-07-06T00:01:52;102282.25;;;14.72
27715;BMP280;16051;53.024;8.630;2022-07-06T00:05:54;102290.44;;;14.67
27715;BMP280;16051;53.024;8.630;2022-07-06T00:09:56;102281.94;;;14.70
27715;BMP280;16051;53.024;8.630;2022-07-06T00:14:01;102277.59;;;14.69
27715;BMP280;16051;53.024;8.630;2022-07-06T00:18:03;102282.25;;;14.72
27715;BMP280;16051;53.024;8.630;2022-07-06T00:22:05;102282.25;;;14.72
27715;BMP280;16051;53.024;8.630;2022-07-06T00:26:07;102283.94;;;14.70
27715;BMP280;16051;53.024;8.630;2022-07-06T00:30:11;102291.34;;;14.73
27715;BMP280;16051;53.024;8.630;2022-07-06T00:34:14;102290.91;;;14.74
27715;BMP280;16051;53.024;8.630;2022-07-06T00:38:16;102284.56;;;14.65
27715;BMP280;16051;53.024;8.630;2022-07-06T00:42:18;102285.19;;;14.69
27715;BMP280;16051;53.024;8.630;2022-07-06T00:46:26;102280.56;;;14.75
27715;BMP280;16051;53.024;8.630;2022-07-06T00:50:29;102274.38;;;14.80
27715;BMP280;16051;53.024;8.630;2022-07-06T00:54:32;102274.50;;;14.76
27715;BMP280;16051;53.024;8.630;2022-07-06T00:58:35;102282.09;;;14.76
27715;BMP280;16051;53.024;8.630;2022-07-06T01:02:39;102276.09;;;14.68
27715;BMP280;16051;53.024;8.630;2022-07-06T01:06:42;102281.78;;;14.74
27715;BMP280;16051;53.024;8.630;2022-07-06T01:10:46;102282.56;;;14.84
27715;BMP280;16051;53.024;8.630;2022-07-06T01:14:48;102276.22;;;14.74
27715;BMP280;16051;53.024;8.630;2022-07-06T01:18:52;102277.00;;;14.74
27715;BMP280;16051;53.024;8.630;2022-07-06T01:22:59;102279.47;;;14.72
27715;BMP280;16051;53.024;8.630;2022-07-06T01:27:01;102273.44;;;14.74
27715;BMP280;16051;53.024;8.630;2022-07-06T01:31:03;102265.09;;;14.74
27715;BMP280;16051;53.024;8.630;2022-07-06T01:35:08;102269.59;;;14.71
27715;BMP280;16051;53.024;8.630;2022-07-06T01:39:12;102262.78;;;14.72
27715;BMP280;16051;53.024;8.630;2022-07-06T01:43:14;102272.66;;;14.73
27715;BMP280;16051;53.024;8.630;2022-07-06T01:47:17;102268.19;;;14.76
27715;BMP280;16051;53.024;8.630;2022-07-06T01:51:19;102263.25;;;14.71
27715;BMP280;16051;53.024;8.630;2022-07-06T01:55:26;102265.56;;;14.72
27715;BMP280;16051;53.024;8.630;2022-07-06T01:59:28;102266.47;;;14.69
27715;BMP280;16051;53.024;8.630;2022-07-06T02:03:30;102265.88;;;14.65
27715;BMP280;16051;53.024;8.630;2022-07-06T02:07:32;102262.00;;;14.63
27715;BMP280;16051;53.024;8.630;2022-07-06T02:11:36;102259.09;;;14.57
27715;BMP280;16051;53.024;8.630;2022-07-06T02:15:38;102263.72;;;14.60
27715;BMP280;16051;53.024;8.630;2022-07-06T02:19:40;102264.97;;;14.68
27715;BMP280;16051;53.024;8.630;2022-07-06T02:23:54;102269.28;;;14.60
27715;BMP280;16051;53.024;8.630;2022-07-06T02:27:58;102268.94;;;14.58
27715;BMP280;16051;53.024;8.630;2022-07-06T02:32:00;102267.25;;;14.52
27715;BMP280;16051;53.024;8.630;2022-07-06T02:36:02;102261.25;;;14.53
27715;BMP280;16051;53.024;8.630;2022-07-06T02:40:06;102260.75;;;14.55
27715;BMP280;16051;53.024;8.630;2022-07-06T02:44:09;102264.78;;;14.45
27715;BMP280;16051;53.024;8.630;2022-07-06T02:48:12;102266.78;;;14.44
27715;BMP280;16051;53.024;8.630;2022-07-06T02:52:14;102260.75;;;14.46
27715;BMP280;16051;53.024;8.630;2022-07-06T02:56:35;102274.66;;;14.46
27715;BMP280;16051;53.024;8.630;2022-07-06T03:00:38;102279.16;;;14.43
27715;BMP280;16051;53.024;8.630;2022-07-06T03:04:40;102278.66;;;14.45
27715;BMP280;16051;53.024;8.630;2022-07-06T03:08:42;102280.38;;;14.42
27715;BMP280;16051;53.024;8.630;2022-07-06T03:12:45;102289.16;;;14.41
27715;BMP280;16051;53.024;8.630;2022-07-06T03:16:48;102293.03;;;14.43
27715;BMP280;16051;53.024;8.630;2022-07-06T03:20:50;102297.81;;;14.43
27715;BMP280;16051;53.024;8.630;2022-07-06T03:24:52;102291.00;;;14.44
27715;BMP280;16051;53.024;8.630;2022-07-06T03:28:55;102287.78;;;14.45
27715;BMP280;16051;53.024;8.630;2022-07-06T03:32:58;102291.34;;;14.46
27715;BMP280;16051;53.024;8.630;2022-07-06T03:37:00;102298.59;;;14.43
27715;BMP280;16051;53.024;8.630;2022-07-06T03:41:02;102289.66;;;14.57
27715;BMP280;16051;53.024;8.630;2022-07-06T03:45:06;102292.13;;;14.46
27715;BMP280;16051;53.024;8.630;2022-07-06T03:49:10;102285.16;;;14.42
27715;BMP280;16051;53.024;8.630;2022-07-06T03:53:12;102280.66;;;14.44
27715;BMP280;16051;53.024;8.630;2022-07-06T03:57:22;102288.22;;;14.44
27715;BMP280;16051;53.024;8.630;2022-07-06T04:01:24;102282.06;;;14.40
27715;BMP280;16051;53.024;8.630;2022-07-06T04:05:28;102293.03;;;14.43
27715;BMP280;16051;53.024;8.630;2022-07-06T04:09:30;102290.88;;;14.38
27715;BMP280;16051;53.024;8.630;2022-07-06T04:13:33;102282.66;;;14.44
27715;BMP280;16051;53.024;8.630;2022-07-06T04:17:35;102281.44;;;14.45
27715;BMP280;16051;53.024;8.630;2022-07-06T04:21:58;102286.09;;;14.48
27715;BMP280;16051;53.024;8.630;2022-07-06T04:26:00;102292.41;;;14.48
27715;BMP280;16051;53.024;8.630;2022-07-06T04:30:03;102297.69;;;14.46
27715;BMP280;16051;53.024;8.630;2022-07-06T04:34:05;102291.97;;;14.50
27715;BMP280;16051;53.024;8.630;2022-07-06T04:38:09;102286.72;;;14.43
27715;BMP280;16051;53.024;8.630;2022-07-06T04:42:11;102295.53;;;14.50
27715;BMP280;16051;53.024;8.630;2022-07-06T04:46:13;102293.81;;;14.62
27715;BMP280;16051;53.024;8.630;2022-07-06T04:50:15;102289.50;;;14.70
27715;BMP280;16051;53.024;8.630;2022-07-06T04:54:25;102292.78;;;14.68
27715;BMP280;16051;53.024;8.630;2022-07-06T04:58:27;102288.91;;;14.75
27715;BMP280;16051;53.024;8.630;2022-07-06T05:02:29;102289.53;;;14.79
27715;BMP280;16051;53.024;8.630;2022-07-06T05:06:31;102284.44;;;14.87
27715;BMP280;16051;53.024;8.630;2022-07-06T05:10:34;102286.28;;;14.81
27715;BMP280;16051;53.024;8.630;2022-07-06T05:14:37;102296.63;;;14.89
27715;BMP280;16051;53.024;8.630;2022-07-06T05:18:39;102292.31;;;14.97
27715;BMP280;16051;53.024;8.630;2022-07-06T05:22:41;102288.28;;;15.07
27715;BMP280;16051;53.024;8.630;2022-07-06T05:26:45;102294.47;;;15.11
27715;BMP280;16051;53.024;8.630;2022-07-06T05:30:47;102298.28;;;15.23
27715;BMP280;16051;53.024;8.630;2022-07-06T05:34:50;102309.13;;;15.21
27715;BMP280;16051;53.024;8.630;2022-07-06T05:38:52;102309.91;;;15.21
27715;BMP280;16051;53.024;8.630;2022-07-06T05:42:56;102306.19;;;15.24
27715;BMP280;16051;53.024;8.630;2022-07-06T05:46:58;102311.44;;;15.32
27715;BMP280;16051;53.024;8.630;2022-07-06T05:51:14;102315.44;;;15.31
27715;BMP280;16051;53.024;8.630;2022-07-06T05:55:16;102314.66;;;15.39
27715;BMP280;16051;53.024;8.630;2022-07-06T05:59:20;102312.34;;;15.47
27715;BMP280;16051;53.024;8.630;2022-07-06T06:03:22;102310.19;;;15.51
27715;BMP280;16051;53.024;8.630;2022-07-06T06:07:24;102313.44;;;15.58
27715;BMP280;16051;53.024;8.630;2022-07-06T06:11:26;102320.03;;;15.70
27715;BMP280;16051;53.024;8.630;2022-07-06T06:15:30;102324.84;;;15.69
27715;BMP280;16051;53.024;8.630;2022-07-06T06:20:00;102326.19;;;15.83
27715;BMP280;16051;53.024;8.630;2022-07-06T06:24:02;102332.66;;;15.89
27715;BMP280;16051;53.024;8.630;2022-07-06T06:28:07;102325.53;;;15.97
27715;BMP280;16051;53.024;8.630;2022-07-06T06:32:29;102323.16;;;16.05
27715;BMP280;16051;53.024;8.630;2022-07-06T06:36:31;102321.78;;;16.00
27715;BMP280;16051;53.024;8.630;2022-07-06T06:40:33;102317.59;;;16.05
27715;BMP280;16051;53.024;8.630;2022-07-06T06:44:35;102321.06;;;16.23
27715;BMP280;16051;53.024;8.630;2022-07-06T06:48:39;102314.53;;;16.27
27715;BMP280;16051;53.024;8.630;2022-07-06T06:52:41;102319.09;;;16.39
27715;BMP280;16051;53.024;8.630;2022-07-06T06:56:54;102322.03;;;16.44
27715;BMP280;16051;53.024;8.630;2022-07-06T07:01:01;102327.84;;;16.55
27715;BMP280;16051;53.024;8.630;2022-07-06T07:05:23;102326.88;;;16.67
27715;BMP280;16051;53.024;8.630;2022-07-06T07:09:25;102336.94;;;16.65
27715;BMP280;16051;53.024;8.630;2022-07-06T07:13:27;102341.88;;;16.70
27715;BMP280;16051;53.024;8.630;2022-07-06T07:17:29;102343.81;;;16.79
27715;BMP280;16051;53.024;8.630;2022-07-06T07:21:39;102347.09;;;16.77
27715;BMP280;16051;53.024;8.630;2022-07-06T07:25:41;102347.69;;;16.81
27715;BMP280;16051;53.024;8.630;2022-07-06T07:29:44;102355.03;;;16.93
27715;BMP280;16051;53.024;8.630;2022-07-06T07:33:46;102347.84;;;17.01
27715;BMP280;16051;53.024;8.630;2022-07-06T07:37:50;102353.22;;;17.29
27715;BMP280;16051;53.024;8.630;2022-07-06T07:41:52;102356.28;;;17.31
27715;BMP280;16051;53.024;8.630;2022-07-06T07:45:54;102352.53;;;17.48
27715;BMP280;16051;53.024;8.630;2022-07-06T07:49:57;102346.56;;;17.55
27715;BMP280;16051;53.024;8.630;2022-07-06T07:54:22;102352.09;;;17.64
27715;BMP280;16051;53.024;8.630;2022-07-06T07:58:25;102351.13;;;17.82
27715;BMP280;16051;53.024;8.630;2022-07-06T08:02:27;102342.53;;;17.86
27715;BMP280;16051;53.024;8.630;2022-07-06T08:06:30;102354.09;;;17.93
27715;BMP280;16051;53.024;8.630;2022-07-06T08:10:33;102349.28;;;18.08
27715;BMP280;16051;53.024;8.630;2022-07-06T08:14:46;102342.41;;;18.09
27715;BMP280;16051;53.024;8.630;2022-07-06T08:18:48;102347.16;;;18.03
27715;BMP280;16051;53.024;8.630;2022-07-06T08:22:50;102351.56;;;18.10
27715;BMP280;16051;53.024;8.630;2022-07-06T08:26:53;102351.59;;;17.95
27715;BMP280;16051;53.024;8.630;2022-07-06T08:30:58;102351.38;;;17.99
27715;BMP280;16051;53.024;8.630;2022-07-06T08:35:16;102351.13;;;17.97
27715;BMP280;16051;53.024;8.630;2022-07-06T08:39:18;102344.25;;;17.98
27715;BMP280;16051;53.024;8.630;2022-07-06T08:43:23;102336.34;;;18.11
27715;BMP280;16051;53.024;8.630;2022-07-06T08:47:27;102348.13;;;18.00
27715;BMP280;16051;53.024;8.630;2022-07-06T08:51:30;102359.22;;;17.80
27715;BMP280;16051;53.024;8.630;2022-07-06T08:55:39;102360.97;;;17.78
27715;BMP280;16051;53.024;8.630;2022-07-06T08:59:43;102355.13;;;17.52
27715;BMP280;16051;53.024;8.630;2022-07-06T09:03:48;102363.91;;;17.45
27715;BMP280;16051;53.024;8.630;2022-07-06T09:07:53;102358.63;;;17.47
27715;BMP280;16051;53.024;8.630;2022-07-06T09:11:55;102368.75;;;17.59
27715;BMP280;16051;53.024;8.630;2022-07-06T09:16:27;102363.38;;;17.70
27715;BMP280;16051;53.024;8.630;2022-07-06T09:20:55;102360.88;;;17.72
27715;BMP280;16051;53.024;8.630;2022-07-06T09:25:07;102364.91;;;18.00
27715;BMP280;16051;53.024;8.630;2022-07-06T09:29:10;102363.13;;;18.17
27715;BMP280;16051;53.024;8.630;2022-07-06T09:33:18;102366.84;;;18.29
27715;BMP280;16051;53.024;8.630;2022-07-06T09:37:22;102363.94;;;18.38
27715;BMP280;16051;53.024;8.630;2022-07-06T09:41:31;102361.69;;;18.42
27715;BMP280;16051;53.024;8.630;2022-07-06T09:46:02;102354.22;;;18.68
27715;BMP280;16051;53.024;8.630;2022-07-06T09:50:07;102362.13;;;18.70
27715;BMP280;16051;53.024;8.630;2022-07-06T09:54:10;102369.03;;;18.75
27715;BMP280;16051;53.024;8.630;2022-07-06T09:58:12;102355.44;;;19.08
27715;BMP280;16051;53.024;8.630;2022-07-06T10:02:48;102370.31;;;19.40
27715;BMP280;16051;53.024;8.630;2022-07-06T10:06:54;102358.78;;;19.58
27715;BMP280;16051;53.024;8.630;2022-07-06T10:10:56;102350.72;;;19.65
27715;BMP280;16051;53.024;8.630;2022-07-06T10:14:59;102352.84;;;19.76
27715;BMP280;16051;53.024;8.630;2022-07-06T10:19:04;102358.31;;;19.59
27715;BMP280;16051;53.024;8.630;2022-07-06T10:23:09;102359.19;;;19.25
27715;BMP280;16051;53.024;8.630;2022-07-06T10:27:12;102358.69;;;19.01
27715;BMP280;16051;53.024;8.630;2022-07-06T10:31:17;102359.84;;;19.14
27715;BMP280;16051;53.024;8.630;2022-07-06T10:35:20;102360.22;;;19.74
27715;BMP280;16051;53.024;8.630;2022-07-06T10:39:52;102360.34;;;19.90
27715;BMP280;16051;53.024;8.630;2022-07-06T10:44:25;102357.81;;;19.92
27715;BMP280;16051;53.024;8.630;2022-07-06T10:48:48;102350.47;;;20.00
27715;BMP280;16051;53.024;8.630;2022-07-06T10:52:52;102360.16;;;19.99
27715;BMP280;16051;53.024;8.630;2022-07-06T10:57:09;102355.38;;;19.74
27715;BMP280;16051;53.024;8.630;2022-07-06T11:01:12;102353.41;;;19.54
27715;BMP280;16051;53.024;8.630;2022-07-06T11:05:40;102361.53;;;19.78
27715;BMP280;16051;53.024;8.630;2022-07-06T11:09:55;102358.69;;;20.04
27715;BMP280;16051;53.024;8.630;2022-07-06T11:14:03;102350.28;;;20.04
27715;BMP280;16051;53.024;8.630;2022-07-06T11:18:22;102347.56;;;20.21
27715;BMP280;16051;53.024;8.630;2022-07-06T11:22:36;102342.19;;;20.59
27715;BMP280;16051;53.024;8.630;2022-07-06T11:26:39;102351.47;;;20.29
27715;BMP280;16051;53.024;8.630;2022-07-06T11:30:46;102350.63;;;20.59
27715;BMP280;16051;53.024;8.630;2022-07-06T11:34:49;102341.41;;;21.24
27715;BMP280;16051;53.024;8.630;2022-07-06T11:38:51;102329.44;;;21.40
27715;BMP280;16051;53.024;8.630;2022-07-06T11:42:54;102329.47;;;21.51
27715;BMP280;16051;53.024;8.630;2022-07-06T11:46:57;102320.78;;;21.93
27715;BMP280;16051;53.024;8.630;2022-07-06T11:51:03;102316.19;;;22.01
27715;BMP280;16051;53.024;8.630;2022-07-06T11:55:06;102309.44;;;22.38
27715;BMP280;16051;53.024;8.630;2022-07-06T11:59:20;102307.16;;;22.94
27715;BMP280;16051;53.024;8.630;2022-07-06T12:03:24;102307.50;;;23.20
27715;BMP280;16051;53.024;8.630;2022-07-06T12:07:28;102317.28;;;22.67
27715;BMP280;16051;53.024;8.630;2022-07-06T12:11:34;102323.31;;;21.64
27715;BMP280;16051;53.024;8.630;2022-07-06T12:15:36;102309.50;;;21.21
27715;BMP280;16051;53.024;8.630;2022-07-06T12:19:40;102314.88;;;21.30
27715;BMP280;16051;53.024;8.630;2022-07-06T12:23:46;102305.69;;;21.74
27715;BMP280;16051;53.024;8.630;2022-07-06T12:27:48;102296.13;;;22.33
27715;BMP280;16051;53.024;8.630;2022-07-06T12:31:52;102300.03;;;22.19
27715;BMP280;16051;53.024;8.630;2022-07-06T12:36:09;102293.16;;;21.53
27715;BMP280;16051;53.024;8.630;2022-07-06T12:40:14;102287.81;;;21.44
27715;BMP280;16051;53.024;8.630;2022-07-06T12:44:18;102275.63;;;22.43
27715;BMP280;16051;53.024;8.630;2022-07-06T12:48:20;102275.59;;;23.07
27715;BMP280;16051;53.024;8.630;2022-07-06T12:52:38;102278.00;;;23.27
27715;BMP280;16051;53.024;8.630;2022-07-06T12:57:11;102281.03;;;22.36
27715;BMP280;16051;53.024;8.630;2022-07-06T13:01:16;102283.25;;;22.60
27715;BMP280;16051;53.024;8.630;2022-07-06T13:05:21;102281.22;;;23.07
27715;BMP280;16051;53.024;8.630;2022-07-06T13:09:30;102269.78;;;22.36
27715;BMP280;16051;53.024;8.630;2022-07-06T13:13:32;102257.13;;;21.79
27715;BMP280;16051;53.024;8.630;2022-07-06T13:17:34;102265.34;;;21.44
27715;BMP280;16051;53.024;8.630;2022-07-06T13:21:38;102264.28;;;21.25
27715;BMP280;16051;53.024;8.630;2022-07-06T13:25:41;102257.06;;;22.18
27715;BMP280;16051;53.024;8.630;2022-07-06T13:29:43;102265.00;;;22.77
27715;BMP280;16051;53.024;8.630;2022-07-06T13:33:45;102262.44;;;23.20
27715;BMP280;16051;53.024;8.630;2022-07-06T13:37:48;102255.59;;;23.10
27715;BMP280;16051;53.024;8.630;2022-07-06T13:41:53;102252.13;;;22.41
27715;BMP280;16051;53.024;8.630;2022-07-06T13:45:55;102246.03;;;22.31
27715;BMP280;16051;53.024;8.630;2022-07-06T13:49:57;102254.88;;;23.04
27715;BMP280;16051;53.024;8.630;2022-07-06T13:54:00;102264.94;;;23.59
27715;BMP280;16051;53.024;8.630;2022-07-06T13:58:03;102249.53;;;23.90
27715;BMP280;16051;53.024;8.630;2022-07-06T14:02:06;102249.78;;;24.16
27715;BMP280;16051;53.024;8.630;2022-07-06T14:06:09;102250.66;;;23.51
27715;BMP280;16051;53.024;8.630;2022-07-06T14:10:11;102252.50;;;22.73
27715;BMP280;16051;53.024;8.630;2022-07-06T14:14:15;102262.16;;;22.83
27715;BMP280;16051;53.024;8.630;2022-07-06T14:18:17;102236.19;;;23.36
27715;BMP280;16051;53.024;8.630;2022-07-06T14:22:19;102242.16;;;23.57
27715;BMP280;16051;53.024;8.630;2022-07-06T14:26:21;102243.88;;;23.00
27715;BMP280;16051;53.024;8.630;2022-07-06T14:30:32;102232.50;;;22.24
27715;BMP280;16051;53.024;8.630;2022-07-06T14:34:35;102231.44;;;22.27
27715;BMP280;16051;53.024;8.630;2022-07-06T14:38:37;102213.88;;;22.04
27715;BMP280;16051;53.024;8.630;2022-07-06T14:42:39;102223.13;;;21.72
27715;BMP280;16051;53.024;8.630;2022-07-06T14:46:43;102219.56;;;21.60
27715;BMP280;16051;53.024;8.630;2022-07-06T14:50:45;102225.47;;;21.40
27715;BMP280;16051;53.024;8.630;2022-07-06T14:54:47;102215.25;;;21.20
27715;BMP280;16051;53.024;8.630;2022-07-06T14:58:49;102224.66;;;21.06
27715;BMP280;16051;53.024;8.630;2022-07-06T15:02:53;102228.50;;;20.97
27715;BMP280;16051;53.024;8.630;2022-07-06T15:06:55;102219.78;;;20.84
27715;BMP280;16051;53.024;8.630;2022-07-06T15:10:57;102217.97;;;20.65
27715;BMP280;16051;53.024;8.630;2022-07-06T15:15:33;102208.25;;;20.66
27715;BMP280;16051;53.024;8.630;2022-07-06T15:19:36;102209.03;;;20.60
27715;BMP280;16051;53.024;8.630;2022-07-06T15:23:38;102206.22;;;20.60
27715;BMP280;16051;53.024;8.630;2022-07-06T15:27:40;102206.94;;;20.50
27715;BMP280;16051;53.024;8.630;2022-07-06T15:31:43;102201.13;;;20.65
27715;BMP280;16051;53.024;8.630;2022-07-06T15:35:46;102192.69;;;20.70
27715;BMP280;16051;53.024;8.630;2022-07-06T15:39:53;102189.63;;;20.62
27715;BMP280;16051;53.024;8.630;2022-07-06T15:43:55;102187.84;;;20.65
27715;BMP280;16051;53.024;8.630;2022-07-06T15:47:58;102191.19;;;20.69
27715;BMP280;16051;53.024;8.630;2022-07-06T15:52:17;102182.00;;;20.74
27715;BMP280;16051;53.024;8.630;2022-07-06T15:56:23;102165.41;;;20.87
27715;BMP280;16051;53.024;8.630;2022-07-06T16:00:26;102168.78;;;21.14
27715;BMP280;16051;53.024;8.630;2022-07-06T16:04:28;102167.75;;;21.28
27715;BMP280;16051;53.024;8.630;2022-07-06T16:08:31;102157.28;;;21.23
27715;BMP280;16051;53.024;8.630;2022-07-06T16:12:34;102151.88;;;21.02
27715;BMP280;16051;53.024;8.630;2022-07-06T16:16:36;102150.34;;;20.96
27715;BMP280;16051;53.024;8.630;2022-07-06T16:20:39;102144.72;;;20.85
27715;BMP280;16051;53.024;8.630;2022-07-06T16:25:09;102143.19;;;20.67
27715;BMP280;16051;53.024;8.630;2022-07-06T16:29:11;102136.28;;;20.57
27715;BMP280;16051;53.024;8.630;2022-07-06T16:33:15;102124.78;;;20.44
27715;BMP280;16051;53.024;8.630;2022-07-06T16:37:48;102125.81;;;20.52
27715;BMP280;16051;53.024;8.630;2022-07-06T16:41:51;102115.09;;;20.45
27715;BMP280;16051;53.024;8.630;2022-07-06T16:45:58;102116.13;;;20.47
27715;BMP280;16051;53.024;8.630;2022-07-06T16:50:16;102106.41;;;20.48
27715;BMP280;16051;53.024;8.630;2022-07-06T16:54:18;102109.47;;;20.39
27715;BMP280;16051;53.024;8.630;2022-07-06T16:58:22;102106.13;;;20.30
27715;BMP280;16051;53.024;8.630;2022-07-06T17:02:24;102108.09;;;20.12
27715;BMP280;16051;53.024;8.630;2022-07-06T17:06:27;102103.22;;;19.96
27715;BMP280;16051;53.024;8.630;2022-07-06T17:10:48;102105.78;;;20.00
27715;BMP280;16051;53.024;8.630;2022-07-06T17:14:51;102101.91;;;19.97
27715;BMP280;16051;53.024;8.630;2022-07-06T17:18:53;102101.66;;;19.95
27715;BMP280;16051;53.024;8.630;2022-07-06T17:22:55;102101.13;;;19.91
27715;BMP280;16051;53.024;8.630;2022-07-06T17:26:58;102109.78;;;19.82
27715;BMP280;16051;53.024;8.630;2022-07-06T17:31:01;102105.63;;;19.67
27715;BMP280;16051;53.024;8.630;2022-07-06T17:35:04;102108.38;;;19.61
27715;BMP280;16051;53.024;8.630;2022-07-06T17:39:07;102109.16;;;19.61
27715;BMP280;16051;53.024;8.630;2022-07-06T17:43:09;102104.25;;;19.51
27715;BMP280;16051;53.024;8.630;2022-07-06T17:47:13;102098.88;;;19.47
27715;BMP280;16051;53.024;8.630;2022-07-06T17:51:15;102097.00;;;19.33
27715;BMP280;16051;53.024;8.630;2022-07-06T17:55:18;102101.03;;;19.27
27715;BMP280;16051;53.024;8.630;2022-07-06T17:59:20;102101.50;;;19.25
27715;BMP280;16051;53.024;8.630;2022-07-06T18:03:42;102092.56;;;19.15
27715;BMP280;16051;53.024;8.630;2022-07-06T18:08:03;102086.41;;;19.11
27715;BMP280;16051;53.024;8.630;2022-07-06T18:12:07;102087.41;;;19.08
27715;BMP280;16051;53.024;8.630;2022-07-06T18:16:09;102077.91;;;18.95
27715;BMP280;16051;53.024;8.630;2022-07-06T18:20:13;102067.09;;;18.82
27715;BMP280;16051;53.024;8.630;2022-07-06T18:24:15;102074.50;;;18.85
27715;BMP280;16051;53.024;8.630;2022-07-06T18:28:18;102067.06;;;18.77
27715;BMP280;16051;53.024;8.630;2022-07-06T18:32:21;102060.38;;;18.68
27715;BMP280;16051;53.024;8.630;2022-07-06T18:36:24;102059.63;;;18.68
27715;BMP280;16051;53.024;8.630;2022-07-06T18:40:29;102057.25;;;18.61
27715;BMP280;16051;53.024;8.630;2022-07-06T18:44:31;102053.69;;;18.60
27715;BMP280;16051;53.024;8.630;2022-07-06T18:48:33;102047.53;;;18.51
27715;BMP280;16051;53.024;8.630;2022-07-06T18:52:37;102051.88;;;18.32
27715;BMP280;16051;53.024;8.630;2022-07-06T18:56:39;102044.91;;;18.22
27715;BMP280;16051;53.024;8.630;2022-07-06T19:00:41;102046.22;;;18.00
27715;BMP280;16051;53.024;8.630;2022-07-06T19:04:46;102045.94;;;17.98
27715;BMP280;16051;53.024;8.630;2022-07-06T19:08:49;102036.16;;;17.88
27715;BMP280;16051;53.024;8.630;2022-07-06T19:12:52;102039.94;;;17.85
27715;BMP280;16051;53.024;8.630;2022-07-06T19:17:10;102038.28;;;17.73
27715;BMP280;16051;53.024;8.630;2022-07-06T19:21:12;102049.34;;;17.47
27715;BMP280;16051;53.024;8.630;2022-07-06T19:25:32;102046.81;;;17.29
27715;BMP280;16051;53.024;8.630;2022-07-06T19:29:35;102038.00;;;17.16
27715;BMP280;16051;53.024;8.630;2022-07-06T19:33:41;102043.22;;;17.08
27715;BMP280;16051;53.024;8.630;2022-07-06T19:37:43;102037.66;;;16.94
27715;BMP280;16051;53.024;8.630;2022-07-06T19:41:51;102038.66;;;16.76
27715;BMP280;16051;53.024;8.630;2022-07-06T19:45:53;102032.03;;;16.73
27715;BMP280;16051;53.024;8.630;2022-07-06T19:49:55;102035.81;;;16.56
27715;BMP280;16051;53.024;8.630;2022-07-06T19:53:58;102023.97;;;16.61
27715;BMP280;16051;53.024;8.630;2022-07-06T19:58:08;102035.38;;;16.48
27715;BMP280;16051;53.024;8.630;2022-07-06T20:02:11;102023.00;;;16.49
27715;BMP280;16051;53.024;8.630;2022-07-06T20:06:13;102018.75;;;16.39
27715;BMP280;16051;53.024;8.630;2022-07-06T20:10:17;102020.88;;;16.44
27715;BMP280;16051;53.024;8.630;2022-07-06T20:14:21;102017.41;;;16.35
27715;BMP280;16051;53.024;8.630;2022-07-06T20:18:23;102010.50;;;16.30
27715;BMP280;16051;53.024;8.630;2022-07-06T20:22:27;101998.94;;;16.22
27715;BMP280;16051;53.024;8.630;2022-07-06T20:26:37;101991.25;;;16.17
27715;BMP280;16051;53.024;8.630;2022-07-06T20:30:40;101987.22;;;16.18
27715;BMP280;16051;53.024;8.630;2022-07-06T20:34:42;101980.09;;;16.17
27715;BMP280;16051;53.024;8.630;2022-07-06T20:38:56;101978.97;;;16.09
27715;BMP280;16051;53.024;8.630;2022-07-06T20:42:58;101974.50;;;16.03
27715;BMP280;16051;53.024;8.630;2022-07-06T20:47:13;101969.63;;;15.98
27715;BMP280;16051;53.024;8.630;2022-07-06T20:51:16;101960.50;;;15.97
27715;BMP280;16051;53.024;8.630;2022-07-06T20:55:38;101959.63;;;15.91
27715;BMP280;16051;53.024;8.630;2022-07-06T20:59:41;101950.97;;;15.89
27715;BMP280;16051;53.024;8.630;2022-07-06T21:03:45;101950.28;;;15.80
27715;BMP280;16051;53.024;8.630;2022-07-06T21:07:48;101938.75;;;15.72
27715;BMP280;16051;53.024;8.630;2022-07-06T21:11:50;101943.84;;;15.73
27715;BMP280;16051;53.024;8.630;2022-07-06T21:15:54;101932.69;;;15.59
27715;BMP280;16051;53.024;8.630;2022-07-06T21:19:57;101932.69;;;15.59
27715;BMP280;16051;53.024;8.630;2022-07-06T21:24:00;101921.25;;;15.57
27715;BMP280;16051;53.024;8.630;2022-07-06T21:28:02;101907.91;;;15.61
27715;BMP280;16051;53.024;8.630;2022-07-06T21:32:10;101907.91;;;15.61
27715;BMP280;16051;53.024;8.630;2022-07-06T21:36:14;101914.72;;;15.60
27715;BMP280;16051;53.024;8.630;2022-07-06T21:40:16;101903.75;;;15.56
27715;BMP280;16051;53.024;8.630;2022-07-06T21:44:18;101902.72;;;15.54
27715;BMP280;16051;53.024;8.630;2022-07-06T21:48:20;101894.09;;;15.52
27715;BMP280;16051;53.024;8.630;2022-07-06T21:52:24;101888.50;;;15.52
27715;BMP280;16051;53.024;8.630;2022-07-06T21:56:26;101880.72;;;15.56
27715;BMP280;16051;53.024;8.630;2022-07-06T22:00:28;101879.47;;;15.57
27715;BMP280;16051;53.024;8.630;2022-07-06T22:04:35;101878.81;;;15.62
27715;BMP280;16051;53.024;8.630;2022-07-06T22:08:38;101870.06;;;15.54
27715;BMP280;16051;53.024;8.630;2022-07-06T22:12:40;101875.34;;;15.52
27715;BMP280;16051;53.024;8.630;2022-07-06T22:16:43;101868.72;;;15.50
27715;BMP280;16051;53.024;8.630;2022-07-06T22:20:45;101867.00;;;15.52
27715;BMP280;16051;53.024;8.630;2022-07-06T22:24:48;101861.41;;;15.52
27715;BMP280;16051;53.024;8.630;2022-07-06T22:28:51;101849.34;;;15.55
27715;BMP280;16051;53.024;8.630;2022-07-06T22:33:01;101851.16;;;15.58
27715;BMP280;16051;53.024;8.630;2022-07-06T22:37:04;101843.88;;;15.61
27715;BMP280;16051;53.024;8.630;2022-07-06T22:41:09;101848.06;;;15.56
27715;BMP280;16051;53.024;8.630;2022-07-06T22:45:11;101838.56;;;15.63
27715;BMP280;16051;53.024;8.630;2022-07-06T22:49:13;101835.97;;;15.59
27715;BMP280;16051;53.024;8.630;2022-07-06T22:53:16;101837.91;;;15.68
27715;BMP280;16051;53.024;8.630;2022-07-06T22:57:19;101823.31;;;15.58
27715;BMP280;16051;53.024;8.630;2022-07-06T23:01:21;101835.13;;;15.53
27715;BMP280;16051;53.024;8.630;2022-07-06T23:05:24;101814.38;;;15.54
27715;BMP280;16051;53.024;8.630;2022-07-06T23:09:26;101813.69;;;15.59
27715;BMP280;16051;53.024;8.630;2022-07-06T23:13:29;101807.78;;;15.52